Iron Mountain, Wyoming
Current Conditions -  °F | °C
As of 5:53 AM on Friday 28 Nov 2014 (Local Time) from KCYS Reporting Station
Clear Clear  
Wind Chill: 42°   Ceiling: Unl
Heat Index: 48°   Visibility: 10mi
Dew Point: 14°   Wind: 15mph
Humidity: 26%   Direction: 260°W
Pressure: 29.95"   Gusts: NA
Location:  41.4091°N, 104.861°W
Report Text: KCYS 281253Z 26013KT 10SM CLR 09/M10 A2995 RMK AO2 SLP101 T00891100
Loading
Personal Weather Stations






























Interactive Weather Map New forecast layout! Learn more

10-Day Weather Forecast

Advertisements
Track Severe Weather on mobile